createdAt,value
2023-10-16T00:01:15.892Z,98758.94
2023-10-16T00:03:43.700Z,98766.87
2023-10-16T00:06:12.686Z,98772.64
2023-10-16T00:08:48.703Z,98766.45
2023-10-16T00:11:19.905Z,98766.98
2023-10-16T00:13:51.304Z,98764.63
2023-10-16T00:16:20.388Z,98762.69
2023-10-16T00:18:48.643Z,98761.14
2023-10-16T00:21:16.541Z,98759.97
2023-10-16T00:23:44.227Z,98761.73
2023-10-16T00:26:13.543Z,98753.63
2023-10-16T00:28:46.099Z,98754.23
2023-10-16T00:31:22.282Z,98755.37
2023-10-16T00:33:52.222Z,98749.77
2023-10-16T00:36:20.280Z,98743.90
2023-10-16T00:38:52.928Z,98740.90
2023-10-16T00:41:29.584Z,98734.80
2023-10-16T00:43:58.477Z,98736.23
2023-10-16T00:46:38.191Z,98730.80
2023-10-16T00:49:07.347Z,98727.73
2023-10-16T00:51:41.998Z,98734.86
2023-10-16T00:54:19.706Z,98734.05
2023-10-16T00:56:50.706Z,98732.85
2023-10-16T00:59:18.447Z,98731.34
2023-10-16T01:01:46.243Z,98737.42
2023-10-16T01:04:18.780Z,98742.59
2023-10-16T01:06:46.945Z,98745.48
2023-10-16T01:09:37.297Z,98744.98
2023-10-16T01:12:09.479Z,98747.91
2023-10-16T01:14:39.515Z,98743.00
2023-10-16T01:17:10.894Z,98736.69
2023-10-16T01:19:38.666Z,98721.61
2023-10-16T01:22:06.295Z,98711.07
2023-10-16T01:24:33.910Z,98714.90
2023-10-16T01:27:16.166Z,98705.48
2023-10-16T01:29:43.905Z,98699.02
2023-10-16T01:32:11.763Z,98694.65
2023-10-16T01:34:42.486Z,98695.34
2023-10-16T01:37:10.883Z,98690.77
2023-10-16T01:39:51.282Z,98685.20
2023-10-16T01:42:20.564Z,98685.35
2023-10-16T01:44:52.685Z,98681.36
2023-10-16T01:47:21.072Z,98680.61
2023-10-16T01:49:51.530Z,98690.23
2023-10-16T01:52:19.118Z,98689.16
2023-10-16T01:54:47.784Z,98689.15
2023-10-16T01:57:16.396Z,98692.05
2023-10-16T01:59:45.576Z,98696.39
2023-10-16T02:02:14.993Z,98697.44
2023-10-16T02:04:43.822Z,98697.33
2023-10-16T02:07:13.422Z,98698.77
2023-10-16T02:09:42.425Z,98699.70
2023-10-16T02:12:12.438Z,98696.23
2023-10-16T02:14:43.181Z,98692.77
2023-10-16T02:17:21.136Z,98696.03
2023-10-16T02:19:49.800Z,98704.73
2023-10-16T02:22:18.250Z,98701.27
2023-10-16T02:24:50.903Z,98692.31
2023-10-16T02:27:20.169Z,98681.73
2023-10-16T02:29:50.720Z,98675.96
2023-10-16T02:32:18.242Z,98683.13
2023-10-16T02:34:46.063Z,98686.94
2023-10-16T02:37:16.291Z,98683.66
2023-10-16T02:39:52.118Z,98684.84
2023-10-16T02:42:21.024Z,98684.21
2023-10-16T02:44:49.793Z,98690.04
2023-10-16T02:47:28.114Z,98690.88
2023-10-16T02:49:58.363Z,98693.35
2023-10-16T02:52:27.004Z,98688.05
2023-10-16T02:54:59.043Z,98691.11
2023-10-16T02:57:29.131Z,98688.43
2023-10-16T02:59:58.182Z,98691.67
2023-10-16T03:02:29.927Z,98690.20
2023-10-16T03:05:11.984Z,98684.67
2023-10-16T03:07:46.539Z,98675.35
2023-10-16T03:10:16.106Z,98677.61
2023-10-16T03:12:45.104Z,98678.62
2023-10-16T03:15:22.137Z,98682.73
2023-10-16T03:17:51.933Z,98677.02
2023-10-16T03:20:38.133Z,98674.02
2023-10-16T03:23:08.968Z,98669.84
2023-10-16T03:25:42.439Z,98674.40
2023-10-16T03:28:10.553Z,98675.04
2023-10-16T03:30:41.115Z,98681.21
2023-10-16T03:34:58.588Z,98690.23
2023-10-16T03:37:26.218Z,98685.18
2023-10-16T03:40:05.780Z,98681.08
2023-10-16T03:42:33.380Z,98679.03
2023-10-16T03:45:03.592Z,98674.31
2023-10-16T03:47:34.389Z,98672.58
2023-10-16T03:50:04.576Z,98671.70
2023-10-16T03:52:31.959Z,98674.18
2023-10-16T03:55:13.746Z,98676.54
2023-10-16T03:57:41.381Z,98684.80
2023-10-16T04:00:17.140Z,98684.31
2023-10-16T04:02:45.667Z,98682.27
2023-10-16T04:05:31.323Z,98671.42
2023-10-16T04:07:58.971Z,98667.70
2023-10-16T04:10:30.256Z,98667.05
2023-10-16T04:12:58.597Z,98671.61
2023-10-16T04:15:38.407Z,98678.14
2023-10-16T04:18:06.179Z,98674.10
2023-10-16T04:20:46.109Z,98675.05
2023-10-16T04:23:31.254Z,98680.58
2023-10-16T04:26:17.492Z,98680.76
2023-10-16T04:29:03.598Z,98677.90
2023-10-16T04:31:46.831Z,98678.94
2023-10-16T04:34:20.893Z,98680.42
2023-10-16T04:36:54.099Z,98682.58
2023-10-16T04:39:41.286Z,98691.79
2023-10-16T04:42:27.974Z,98697.11
2023-10-16T04:45:14.096Z,98702.31
2023-10-16T04:48:08.930Z,98695.19
2023-10-16T04:53:10.896Z,98694.84
2023-10-16T04:55:42.206Z,98694.68
2023-10-16T04:58:19.908Z,98696.52
2023-10-16T05:01:14.038Z,98695.52
2023-10-16T05:03:45.234Z,98699.07
2023-10-16T05:06:19.916Z,98693.02
2023-10-16T05:09:20.735Z,98691.45
2023-10-16T05:12:07.646Z,98690.73
2023-10-16T05:14:54.041Z,98689.92
2023-10-16T05:17:44.347Z,98695.90
2023-10-16T05:20:34.798Z,98693.40
2023-10-16T05:23:05.184Z,98692.14
2023-10-16T05:25:53.520Z,98697.92
2023-10-16T05:28:41.193Z,98706.65
2023-10-16T05:31:27.456Z,98708.83
2023-10-16T05:34:24.450Z,98714.23
2023-10-16T05:37:18.032Z,98715.58
2023-10-16T05:40:06.036Z,98712.89
2023-10-16T05:42:52.298Z,98709.60
2023-10-16T05:45:38.801Z,98712.68
2023-10-16T05:48:25.783Z,98711.39
2023-10-16T05:51:11.967Z,98710.49
2023-10-16T05:53:58.359Z,98710.35
2023-10-16T05:56:44.665Z,98720.39
2023-10-16T05:59:31.250Z,98729.45
2023-10-16T06:02:18.537Z,98737.21
2023-10-16T06:05:04.991Z,98732.18
2023-10-16T06:07:51.266Z,98728.92
2023-10-16T06:10:37.456Z,98723.70
2023-10-16T06:13:23.825Z,98725.02
2023-10-16T06:15:51.478Z,98723.89
2023-10-16T06:18:19.123Z,98721.29
2023-10-16T06:20:46.574Z,98721.70
2023-10-16T06:23:15.083Z,98726.17
2023-10-16T06:25:49.114Z,98730.35
2023-10-16T06:28:16.686Z,98730.86
2023-10-16T06:30:44.218Z,98731.14
2023-10-16T06:33:15.954Z,98730.89
2023-10-16T06:35:43.574Z,98735.08
2023-10-16T06:38:12.683Z,98736.41
2023-10-16T06:40:41.766Z,98733.88
2023-10-16T06:43:11.284Z,98742.43
2023-10-16T06:45:44.201Z,98743.96
2023-10-16T06:48:16.456Z,98743.91
2023-10-16T06:50:55.255Z,98750.50
2023-10-16T06:53:25.736Z,98752.86
2023-10-16T06:55:53.268Z,98756.52
2023-10-16T06:58:24.058Z,98754.85
2023-10-16T07:00:53.664Z,98757.96
2023-10-16T07:03:22.390Z,98758.71
2023-10-16T07:05:50.097Z,98758.60
2023-10-16T07:08:21.728Z,98760.37
2023-10-16T07:11:04.853Z,98758.17
2023-10-16T07:13:32.941Z,98756.52
2023-10-16T07:16:04.945Z,98757.56
2023-10-16T07:18:34.815Z,98761.84
2023-10-16T07:21:05.850Z,98763.70
2023-10-16T07:23:37.635Z,98769.30
2023-10-16T07:26:06.774Z,98769.85
2023-10-16T07:28:34.362Z,98770.27
2023-10-16T07:31:04.332Z,98772.46
2023-10-16T07:33:33.826Z,98775.36
2023-10-16T07:36:01.423Z,98768.43
2023-10-16T07:38:29.505Z,98767.30
2023-10-16T07:41:00.778Z,98761.67
2023-10-16T07:43:29.813Z,98762.52
2023-10-16T07:46:13.387Z,98761.82
2023-10-16T07:48:48.477Z,98761.10
2023-10-16T07:51:17.651Z,98764.75
2023-10-16T07:53:45.385Z,98761.24
2023-10-16T07:56:25.420Z,98758.52
2023-10-16T07:58:57.880Z,98758.31
2023-10-16T08:01:38.116Z,98754.88
2023-10-16T08:04:07.425Z,98756.39
2023-10-16T08:06:38.737Z,98761.87
2023-10-16T08:09:25.338Z,98769.48
2023-10-16T08:11:59.574Z,98766.07
2023-10-16T08:14:33.382Z,98762.92
2023-10-16T08:17:06.945Z,98753.98
2023-10-16T08:19:36.130Z,98752.48
2023-10-16T08:22:09.318Z,98751.38
2023-10-16T08:24:45.044Z,98749.08
2023-10-16T08:27:24.866Z,98750.45
2023-10-16T08:29:55.247Z,98749.73
2023-10-16T08:32:41.516Z,98749.30
2023-10-16T08:35:11.406Z,98751.42
2023-10-16T08:37:51.353Z,98747.57
2023-10-16T08:40:25.309Z,98745.91
2023-10-16T08:43:01.762Z,98747.86
2023-10-16T08:45:30.846Z,98747.80
2023-10-16T08:48:06.608Z,98743.88
2023-10-16T08:50:45.052Z,98742.29
2023-10-16T08:53:34.144Z,98740.08
2023-10-16T08:56:10.412Z,98745.41
2023-10-16T08:58:42.560Z,98741.34
2023-10-16T09:01:10.998Z,98735.14
2023-10-16T09:03:43.951Z,98743.34
2023-10-16T09:06:15.058Z,98743.03
2023-10-16T09:08:42.611Z,98741.91
2023-10-16T09:11:11.610Z,98740.09
2023-10-16T09:13:41.310Z,98740.48
2023-10-16T09:16:16.838Z,98744.45
2023-10-16T09:18:47.006Z,98739.46
2023-10-16T09:21:14.849Z,98745.09
2023-10-16T09:23:43.775Z,98746.65
2023-10-16T09:26:11.863Z,98752.05
2023-10-16T09:28:39.452Z,98745.17
2023-10-16T09:31:13.005Z,98749.27
2023-10-16T09:33:41.290Z,98752.45
2023-10-16T09:36:19.453Z,98748.38
2023-10-16T09:38:52.789Z,98750.04
2023-10-16T09:41:27.378Z,98748.69
2023-10-16T09:44:08.576Z,98745.83
2023-10-16T09:46:42.259Z,98750.02
2023-10-16T09:49:10.048Z,98753.10
2023-10-16T09:51:40.869Z,98750.88
2023-10-16T09:54:15.280Z,98753.84
2023-10-16T09:56:54.196Z,98753.65
2023-10-16T09:59:25.067Z,98748.96
2023-10-16T10:01:56.755Z,98746.84
2023-10-16T10:04:27.699Z,98749.77
2023-10-16T10:06:56.802Z,98744.77
2023-10-16T10:09:35.875Z,98749.20
2023-10-16T10:12:22.015Z,98753.59
2023-10-16T10:15:16.463Z,98750.84
2023-10-16T10:17:44.627Z,98752.73
2023-10-16T10:20:24.827Z,98752.37
2023-10-16T10:22:57.559Z,98752.13
2023-10-16T10:25:41.620Z,98753.23
2023-10-16T10:28:26.546Z,98753.21
2023-10-16T10:30:57.175Z,98752.27
2023-10-16T10:33:59.652Z,98753.50
2023-10-16T10:36:51.399Z,98755.55
2023-10-16T10:39:30.514Z,98755.87
2023-10-16T10:42:05.248Z,98761.23
2023-10-16T10:44:34.128Z,98758.43
2023-10-16T10:47:06.411Z,98761.92
2023-10-16T10:49:37.029Z,98763.14
2023-10-16T10:52:08.521Z,98767.73
2023-10-16T10:54:36.538Z,98766.62
2023-10-16T10:57:10.971Z,98766.74
2023-10-16T10:59:42.599Z,98768.02
2023-10-16T11:02:22.571Z,98767.85
2023-10-16T11:05:09.882Z,98775.05
2023-10-16T11:07:47.243Z,98775.09
2023-10-16T11:10:15.338Z,98778.27
2023-10-16T11:12:45.555Z,98782.70
2023-10-16T11:15:17.226Z,98788.09
2023-10-16T11:17:46.226Z,98793.60
2023-10-16T11:20:16.952Z,98796.41
2023-10-16T11:22:44.840Z,98796.17
2023-10-16T11:25:15.638Z,98797.27
2023-10-16T11:27:43.893Z,98796.30
2023-10-16T11:30:16.579Z,98804.59
2023-10-16T11:32:46.881Z,98807.16
2023-10-16T11:35:16.100Z,98803.15
2023-10-16T11:37:45.442Z,98810.15
2023-10-16T11:40:25.999Z,98810.03
2023-10-16T11:42:53.672Z,98803.55
2023-10-16T11:45:22.407Z,98802.90
2023-10-16T11:48:10.189Z,98806.48
2023-10-16T11:50:41.674Z,98811.14
2023-10-16T11:53:09.518Z,98812.34
2023-10-16T11:55:37.654Z,98813.33
2023-10-16T11:58:08.163Z,98810.59
2023-10-16T12:00:37.148Z,98813.64
2023-10-16T12:03:08.828Z,98812.81
2023-10-16T12:05:36.454Z,98809.65
2023-10-16T12:08:09.053Z,98812.52
2023-10-16T12:10:37.126Z,98821.21
2023-10-16T12:13:05.143Z,98823.45
2023-10-16T12:15:33.310Z,98829.05
2023-10-16T12:18:02.581Z,98831.40
2023-10-16T12:20:31.563Z,98838.17
2023-10-16T12:23:03.109Z,98845.81
2023-10-16T12:25:31.065Z,98841.29
2023-10-16T12:27:58.628Z,98847.29
2023-10-16T12:30:29.982Z,98849.41
2023-10-16T12:32:57.567Z,98859.44
2023-10-16T12:35:27.079Z,98855.40
2023-10-16T12:37:57.053Z,98860.98
2023-10-16T12:40:35.529Z,98863.33
2023-10-16T12:43:03.313Z,98869.95
2023-10-16T12:45:31.053Z,98869.45
2023-10-16T12:47:59.381Z,98874.98
2023-10-16T12:50:28.874Z,98880.05
2023-10-16T12:52:57.879Z,98882.02
2023-10-16T12:55:26.172Z,98881.86
2023-10-16T12:57:54.461Z,98887.59
2023-10-16T13:00:23.567Z,98887.38
2023-10-16T13:02:52.890Z,98888.36
2023-10-16T13:05:20.963Z,98891.52
2023-10-16T13:07:52.958Z,98896.91
2023-10-16T13:10:27.250Z,98897.02
2023-10-16T13:12:54.831Z,98898.08
2023-10-16T13:15:30.918Z,98900.75
2023-10-16T13:18:00.072Z,98908.46
2023-10-16T13:20:29.448Z,98909.60
2023-10-16T13:22:58.098Z,98910.89
2023-10-16T13:25:36.196Z,98904.20
2023-10-16T13:28:08.772Z,98911.13
2023-10-16T13:30:36.531Z,98914.09
2023-10-16T13:33:10.690Z,98917.13
2023-10-16T13:35:41.084Z,98919.06
2023-10-16T13:38:09.159Z,98925.98
2023-10-16T13:40:37.364Z,98923.95
2023-10-16T13:43:11.699Z,98921.92
2023-10-16T13:45:40.350Z,98929.19
2023-10-16T13:48:11.433Z,98929.15
2023-10-16T13:50:41.968Z,98929.19
2023-10-16T13:53:13.050Z,98931.29
2023-10-16T13:55:41.354Z,98935.68
2023-10-16T13:58:10.270Z,98935.18
2023-10-16T14:00:39.208Z,98941.71
2023-10-16T14:03:17.033Z,98946.39
2023-10-16T14:05:48.568Z,98951.52
2023-10-16T14:08:17.063Z,98954.57
2023-10-16T14:10:51.000Z,98948.00
2023-10-16T14:13:23.175Z,98954.70
2023-10-16T14:15:51.597Z,98952.08
2023-10-16T14:18:22.721Z,98952.68
2023-10-16T14:20:50.316Z,98959.88
2023-10-16T14:23:20.200Z,98958.89
2023-10-16T14:25:50.720Z,98963.70
2023-10-16T14:28:29.126Z,98971.29
2023-10-16T14:30:57.856Z,98973.73
2023-10-16T14:33:30.046Z,98979.98
2023-10-16T14:35:59.045Z,98979.61
2023-10-16T14:38:27.750Z,98980.27
2023-10-16T14:41:10.197Z,98982.09
2023-10-16T14:43:38.099Z,98983.70
2023-10-16T14:46:09.028Z,98986.45
2023-10-16T14:48:39.169Z,98985.15
2023-10-16T14:51:06.937Z,98994.25
2023-10-16T14:53:36.900Z,98997.52
2023-10-16T14:56:04.502Z,99001.83
2023-10-16T15:01:16.405Z,99011.33
2023-10-16T15:03:48.796Z,99009.73
2023-10-16T15:06:16.749Z,99014.46
2023-10-16T15:08:45.103Z,99022.55
2023-10-16T15:11:14.125Z,99019.24
2023-10-16T15:13:41.862Z,99022.33
2023-10-16T15:16:11.559Z,99017.91
2023-10-16T15:18:42.743Z,99017.38
2023-10-16T15:21:12.114Z,99023.52
2023-10-16T15:23:39.759Z,99019.77
2023-10-16T15:26:08.377Z,99033.27
2023-10-16T15:28:45.845Z,99032.92
2023-10-16T15:31:17.731Z,99039.87
2023-10-16T15:33:46.204Z,99047.19
2023-10-16T15:36:14.380Z,99053.77
2023-10-16T15:38:43.632Z,99056.11
2023-10-16T15:41:15.215Z,99052.42
2023-10-16T15:43:48.213Z,99057.61
2023-10-16T15:46:28.859Z,99058.70
2023-10-16T15:48:57.408Z,99055.36
2023-10-16T15:52:32.621Z,99065.45
2023-10-16T15:55:00.249Z,99078.98
2023-10-16T15:57:28.118Z,99078.83
2023-10-16T15:59:55.975Z,99082.54
2023-10-16T16:02:23.505Z,99083.73
2023-10-16T16:04:55.671Z,99087.52
2023-10-16T16:07:23.324Z,99095.73
2023-10-16T16:09:53.265Z,99096.92
2023-10-16T16:12:21.114Z,99099.94
2023-10-16T16:14:48.919Z,99108.02
2023-10-16T16:17:16.512Z,99111.95
2023-10-16T16:19:44.620Z,99112.29
2023-10-16T16:22:12.875Z,99119.97
2023-10-16T16:24:40.784Z,99118.95
2023-10-16T16:27:09.342Z,99115.06
2023-10-16T16:29:38.100Z,99116.58
2023-10-16T16:32:06.676Z,99117.99
2023-10-16T16:34:34.759Z,99122.13
2023-10-16T16:37:02.406Z,99125.11
2023-10-16T16:39:37.143Z,99125.21
2023-10-16T16:42:05.791Z,99124.90
2023-10-16T16:44:33.410Z,99124.17
2023-10-16T16:47:00.880Z,99125.23
2023-10-16T16:49:28.728Z,99126.76
2023-10-16T16:51:56.452Z,99125.19
2023-10-16T16:54:24.043Z,99132.96
2023-10-16T16:56:51.668Z,99134.16
2023-10-16T16:59:21.553Z,99136.50
2023-10-16T17:01:49.322Z,99136.52
2023-10-16T17:04:16.983Z,99140.80
2023-10-16T17:06:44.873Z,99138.17
2023-10-16T17:09:21.232Z,99142.50
2023-10-16T17:11:49.147Z,99142.80
2023-10-16T17:14:17.167Z,99139.41
2023-10-16T17:16:47.108Z,99142.34
2023-10-16T17:19:16.026Z,99144.48
2023-10-16T17:21:45.219Z,99146.11
2023-10-16T17:24:12.999Z,99153.33
2023-10-16T17:26:41.189Z,99152.96
2023-10-16T17:29:09.026Z,99156.00
2023-10-16T17:31:37.262Z,99153.45
2023-10-16T17:34:06.051Z,99154.95
2023-10-16T17:36:35.031Z,99157.58
2023-10-16T17:39:07.688Z,99154.45
2023-10-16T17:41:35.337Z,99152.48
2023-10-16T17:44:03.218Z,99156.02
2023-10-16T17:46:30.733Z,99163.00
2023-10-16T17:48:58.536Z,99163.20
2023-10-16T17:51:26.746Z,99168.86
2023-10-16T17:53:54.368Z,99169.12
2023-10-16T17:56:21.877Z,99175.14
2023-10-16T17:58:49.854Z,99175.10
2023-10-16T18:01:17.441Z,99180.45
2023-10-16T18:03:46.745Z,99180.73
2023-10-16T18:06:15.478Z,99185.50
2023-10-16T18:08:45.180Z,99180.45
2023-10-16T18:11:15.198Z,99181.98
2023-10-16T18:13:44.034Z,99180.35
2023-10-16T18:16:11.557Z,99181.03
2023-10-16T18:18:39.312Z,99173.55
2023-10-16T18:21:06.929Z,99175.92
2023-10-16T18:23:34.542Z,99174.70
2023-10-16T18:26:02.100Z,99176.19
2023-10-16T18:28:29.682Z,99186.02
2023-10-16T18:30:57.232Z,99194.71
2023-10-16T18:33:25.639Z,99197.11
2023-10-16T18:35:54.145Z,99194.58
2023-10-16T18:38:22.357Z,99199.50
2023-10-16T18:40:50.224Z,99198.44
2023-10-16T18:43:17.734Z,99204.28
2023-10-16T18:45:45.848Z,99206.15
2023-10-16T18:48:13.883Z,99207.66
2023-10-16T18:50:41.608Z,99214.05
2023-10-16T18:53:10.915Z,99215.90
2023-10-16T18:55:39.606Z,99221.26
2023-10-16T18:58:07.478Z,99229.65
2023-10-16T19:00:35.988Z,99235.02
2023-10-16T19:03:04.308Z,99238.55
2023-10-16T19:05:33.871Z,99243.54
2023-10-16T19:08:01.856Z,99247.60
2023-10-16T19:10:29.557Z,99248.65
2023-10-16T19:12:57.127Z,99245.31
2023-10-16T19:15:24.618Z,99251.52
2023-10-16T19:17:53.983Z,99250.23
2023-10-16T19:20:23.782Z,99249.24
2023-10-16T19:22:51.531Z,99251.30
2023-10-16T19:25:19.117Z,99254.52
2023-10-16T19:27:47.346Z,99258.80
2023-10-16T19:30:15.522Z,99261.52
2023-10-16T19:32:44.968Z,99263.50
2023-10-16T19:35:13.548Z,99265.52
2023-10-16T19:37:41.282Z,99267.88
2023-10-16T19:40:16.349Z,99270.27
2023-10-16T19:42:48.272Z,99270.52
2023-10-16T19:45:16.208Z,99271.86
2023-10-16T19:47:44.385Z,99279.51
2023-10-16T19:50:12.588Z,99283.62
2023-10-16T19:52:40.530Z,99285.56
2023-10-16T19:55:19.266Z,99286.33
2023-10-16T19:57:47.021Z,99284.42
2023-10-16T20:00:18.503Z,99284.91
2023-10-16T20:02:46.588Z,99287.76
2023-10-16T20:05:19.645Z,99290.11
2023-10-16T20:07:48.089Z,99288.37
2023-10-16T20:10:16.218Z,99294.48
2023-10-16T20:12:48.393Z,99294.03
2023-10-16T20:15:17.356Z,99292.00
2023-10-16T20:17:45.453Z,99293.80
2023-10-16T20:20:28.739Z,99292.92
2023-10-16T20:23:03.142Z,99296.11
2023-10-16T20:25:31.007Z,99298.23
2023-10-16T20:27:59.205Z,99300.96
2023-10-16T20:30:28.880Z,99307.95
2023-10-16T20:32:57.836Z,99307.07
2023-10-16T20:35:26.155Z,99308.34
2023-10-16T20:37:53.706Z,99310.80
2023-10-16T20:40:22.902Z,99307.05
2023-10-16T20:42:52.643Z,99306.47
2023-10-16T20:45:20.329Z,99308.05
2023-10-16T20:47:50.701Z,99313.35
2023-10-16T20:50:22.646Z,99315.04
2023-10-16T20:52:50.402Z,99315.02
2023-10-16T20:55:19.814Z,99316.40
2023-10-16T20:57:47.762Z,99314.87
2023-10-16T21:00:15.867Z,99317.55
2023-10-16T21:02:50.488Z,99320.06
2023-10-16T21:05:26.157Z,99315.30
2023-10-16T21:07:54.962Z,99317.81
2023-10-16T21:10:23.360Z,99323.38
2023-10-16T21:12:52.067Z,99327.20
2023-10-16T21:15:19.748Z,99332.67
2023-10-16T21:17:48.387Z,99337.20
2023-10-16T21:20:18.128Z,99338.23
2023-10-16T21:22:49.135Z,99343.98
2023-10-16T21:25:17.389Z,99344.96
2023-10-16T21:27:47.882Z,99345.02
2023-10-16T21:30:25.056Z,99342.29
2023-10-16T21:32:53.830Z,99351.54
2023-10-16T21:35:25.963Z,99352.36
2023-10-16T21:37:53.816Z,99350.20
2023-10-16T21:40:24.169Z,99349.25
2023-10-16T21:42:52.512Z,99353.70
2023-10-16T21:45:20.969Z,99346.74
2023-10-16T21:47:49.219Z,99363.46
2023-10-16T21:50:17.028Z,99363.98
2023-10-16T21:52:44.560Z,99364.60
2023-10-16T21:55:13.499Z,99370.19
2023-10-16T21:57:41.108Z,99369.14
2023-10-16T22:00:13.883Z,99371.88
2023-10-16T22:02:45.001Z,99369.62
2023-10-16T22:05:13.734Z,99369.05
2023-10-16T22:07:41.824Z,99376.87
2023-10-16T22:10:14.792Z,99377.53
2023-10-16T22:12:42.501Z,99377.70
2023-10-16T22:15:13.050Z,99374.99
2023-10-16T22:17:40.941Z,99373.22
2023-10-16T22:20:12.941Z,99372.39
2023-10-16T22:22:41.750Z,99379.68
2023-10-16T22:25:12.013Z,99376.16
2023-10-16T22:27:39.694Z,99377.34
2023-10-16T22:30:08.352Z,99380.97
2023-10-16T22:32:36.531Z,99382.90
2023-10-16T22:35:09.426Z,99383.12
2023-10-16T22:37:37.365Z,99384.45
2023-10-16T22:40:09.484Z,99382.16
2023-10-16T22:42:37.037Z,99387.52
2023-10-16T22:45:06.506Z,99387.90
2023-10-16T22:47:35.508Z,99391.98
2023-10-16T22:50:03.145Z,99396.05
2023-10-16T22:52:30.604Z,99399.52
2023-10-16T22:54:59.655Z,99403.52
2023-10-16T22:57:28.163Z,99402.52
2023-10-16T22:59:58.197Z,99408.98
2023-10-16T23:02:25.969Z,99408.70
2023-10-16T23:04:53.620Z,99405.23
2023-10-16T23:07:21.632Z,99409.83
2023-10-16T23:09:49.187Z,99406.26
2023-10-16T23:12:20.462Z,99409.32
2023-10-16T23:14:51.443Z,99409.71
2023-10-16T23:17:19.173Z,99413.26
2023-10-16T23:19:49.026Z,99411.65
2023-10-16T23:22:18.486Z,99409.20
2023-10-16T23:24:46.097Z,99407.17
2023-10-16T23:27:13.634Z,99410.85
2023-10-16T23:29:43.969Z,99410.15
2023-10-16T23:32:13.471Z,99407.17
2023-10-16T23:34:55.603Z,99413.02
2023-10-16T23:37:33.034Z,99409.27
2023-10-16T23:40:00.591Z,99407.40
2023-10-16T23:42:37.204Z,99406.11
2023-10-16T23:45:09.014Z,99410.11
2023-10-16T23:47:36.599Z,99409.40
2023-10-16T23:50:08.374Z,99412.12
2023-10-16T23:52:38.956Z,99413.23
2023-10-16T23:55:16.380Z,99410.60
2023-10-16T23:57:49.782Z,99412.17
